Información del aeropuerto LEVX

Información de pista
Pista 02 Longitud 7874 ft Anchura 148 ft
Elevación 855 ft Umbral 0 ft Rumbo 11
Pista 20 Longitud 7874 ft Anchura 148 ft
Elevación 829 ft Umbral 0 ft Rumbo 191
Frecuencias del aeropuerto
Tipo APP Nombre SANTIAGO A Frecuencia 120.2 MHZ
Tipo GND Nombre GND Frecuencia 121.7 MHZ
Tipo TWR Nombre TWR Frecuencia 118.45 MHZ
Radioayudas del aeropuerto
Tipo VOR-DME Nombre Vigo Frecuencia 113600 KHZ
Tipo NDB Nombre Vigo Frecuencia 345 KHZ
Tipo NDB Nombre Vigo Frecuencia 433 KHZ
Información meteorológica del aeropuerto y NOTAM
ADDS - METARS form results

(0105 UTC 24 June 2021)
Data provider http://aviationweather.gov/metar/data/
 
METAR text: LEVX 240100Z VRB02KT CAVOK 12/10 Q1021 NOSIG
Conditions at: LEVX (VIGO/PEINADOR , ES) observed 0100 UTC 24 June 2021
Temperature: 12.0°C (54°F)
Dewpoint: 10.0°C (50°F) [RH = 88%]
Pressure (altimeter): 30.15 inches Hg (1021.0 mb)
Winds: variable direction winds at 2 MPH (2 knots; 1.0 m/s)
Visibility: 6 or more miles (10+ km)
Ceiling: ceiling and visibility are OK
Clouds: unknown
Weather: no significant weather observed at this time

METAR text: LEVX 240030Z VRB01KT CAVOK 12/10 Q1021 NOSIG
Conditions at: LEVX (VIGO/PEINADOR , ES) observed 0030 UTC 24 June 2021
Temperature: 12.0°C (54°F)
Dewpoint: 10.0°C (50°F) [RH = 88%]
Pressure (altimeter): 30.15 inches Hg (1021.0 mb)
Winds: variable direction winds at 1 MPH (1 knots; 0.5 m/s)
Visibility: 6 or more miles (10+ km)
Ceiling: ceiling and visibility are OK
Clouds: unknown
Weather: no significant weather observed at this time

Forecast for: LEVX (VIGO/PEINADOR , ES)
Text: TAF LEVX 232300Z 2400/2424 VRB04KT CAVOK TX27/2415Z TN11/2405Z
Forecast period: 0000 UTC 24 June 2021 to 0000 UTC 25 June 2021
Forecast type: FROM: standard forecast or significant change
Winds: variable direction winds at 5 MPH (4 knots; 2.1 m/s)
Visibility: 6 or more miles (10+ km)
Ceiling: unknown
Clouds: missing
Weather: no significant weather forecast for this period
Text: PROB40
Forecast period: 1200 to 2100 UTC 24 June 2021
Forecast type: TEMPORARY: The following changes expected for less than half the time period
Winds: from the NNE (30 degrees) at 12 MPH (10 knots; 5.1 m/s)
Visibility: missing
Ceiling: unknown
Clouds: missing
Weather: no significant weather forecast for this period
Text: TEMPO 2412/2421 03010KT
Forecast period: 1500 to 1900 UTC 24 June 2021
Forecast type: TEMPORARY: The following changes expected for less than half the time period
Winds: from the WNW (290 degrees) at 12 MPH (10 knots; 5.1 m/s)
Visibility: missing
Ceiling: unknown
Clouds: missing
Weather: no significant weather forecast for this period